createdAt,value
2023-02-09T00:00:17.014Z,102801.36
2023-02-09T00:03:11.853Z,102799.15
2023-02-09T00:05:41.357Z,102799.35
2023-02-09T00:08:11.061Z,102803.21
2023-02-09T00:10:40.612Z,102801.46
2023-02-09T00:13:23.502Z,102798.36
2023-02-09T00:16:04.274Z,102797.14
2023-02-09T00:18:37.399Z,102789.15
2023-02-09T00:21:19.727Z,102787.60
2023-02-09T00:23:52.268Z,102792.95
2023-02-09T00:26:31.249Z,102793.82
2023-02-09T00:29:10.709Z,102793.89
2023-02-09T00:31:40.672Z,102792.84
2023-02-09T00:34:11.430Z,102790.02
2023-02-09T00:36:43.607Z,102789.36
2023-02-09T00:39:22.261Z,102791.23
2023-02-09T00:42:08.078Z,102796.61
2023-02-09T00:44:40.627Z,102797.14
2023-02-09T00:47:20.038Z,102790.81
2023-02-09T00:50:08.025Z,102790.24
2023-02-09T00:52:40.174Z,102784.33
2023-02-09T00:55:10.681Z,102784.30
2023-02-09T00:57:42.106Z,102786.98
2023-02-09T01:00:22.879Z,102788.55
2023-02-09T01:02:52.308Z,102787.44
2023-02-09T01:05:27.369Z,102781.31
2023-02-09T01:07:56.380Z,102778.20
2023-02-09T01:10:27.819Z,102778.19
2023-02-09T01:12:57.497Z,102780.77
2023-02-09T01:15:29.490Z,102782.05
2023-02-09T01:18:07.420Z,102778.89
2023-02-09T01:20:36.481Z,102778.99
2023-02-09T01:23:05.156Z,102779.31
2023-02-09T01:25:33.887Z,102773.30
2023-02-09T01:28:14.708Z,102767.64
2023-02-09T01:30:45.953Z,102765.52
2023-02-09T01:33:18.716Z,102760.25
2023-02-09T01:36:00.244Z,102754.00
2023-02-09T01:38:53.462Z,102749.64
2023-02-09T01:41:29.356Z,102745.84
2023-02-09T01:44:31.282Z,102742.61
2023-02-09T01:47:06.127Z,102743.18
2023-02-09T01:49:35.664Z,102740.89
2023-02-09T01:52:15.712Z,102737.71
2023-02-09T01:55:05.525Z,102729.81
2023-02-09T01:57:54.391Z,102727.98
2023-02-09T02:00:40.802Z,102723.63
2023-02-09T02:03:18.818Z,102718.60
2023-02-09T02:05:59.967Z,102716.00
2023-02-09T02:08:44.564Z,102715.59
2023-02-09T02:11:17.741Z,102710.23
2023-02-09T02:14:04.917Z,102700.33
2023-02-09T02:17:07.134Z,102702.63
2023-02-09T02:20:31.282Z,102699.09
2023-02-09T02:23:27.381Z,102691.95
2023-02-09T02:26:45.527Z,102687.15
2023-02-09T02:29:46.998Z,102678.03
2023-02-09T02:32:51.754Z,102674.61
2023-02-09T02:35:47.440Z,102667.58
2023-02-09T02:38:36.563Z,102666.08
2023-02-09T02:41:56.683Z,102668.34
2023-02-09T02:44:30.261Z,102652.31
2023-02-09T02:47:07.814Z,102650.15
2023-02-09T02:49:45.433Z,102644.23
2023-02-09T02:52:17.121Z,102636.06
2023-02-09T02:55:15.020Z,102636.73
2023-02-09T02:57:56.709Z,102626.88
2023-02-09T03:00:38.794Z,102626.08
2023-02-09T03:03:15.739Z,102623.80
2023-02-09T03:05:45.601Z,102625.84
2023-02-09T03:08:17.529Z,102623.07
2023-02-09T03:11:20.458Z,102624.92
2023-02-09T03:14:30.428Z,102627.45
2023-02-09T03:17:56.067Z,102620.98
2023-02-09T03:20:56.215Z,102618.09
2023-02-09T03:23:50.901Z,102612.89
2023-02-09T03:26:39.801Z,102609.92
2023-02-09T03:29:23.125Z,102602.80
2023-02-09T03:31:59.730Z,102596.58
2023-02-09T03:34:33.764Z,102593.77
2023-02-09T03:37:09.688Z,102587.70
2023-02-09T03:39:46.639Z,102585.98
2023-02-09T03:42:17.516Z,102584.14
2023-02-09T03:44:48.301Z,102579.08
2023-02-09T03:47:24.354Z,102583.23
2023-02-09T03:49:58.483Z,102582.30
2023-02-09T03:52:31.461Z,102575.13
2023-02-09T03:55:04.904Z,102568.23
2023-02-09T03:57:39.565Z,102560.64
2023-02-09T04:00:13.574Z,102560.70
2023-02-09T04:02:47.772Z,102557.81
2023-02-09T04:05:18.281Z,102553.41
2023-02-09T04:07:49.523Z,102553.02
2023-02-09T04:10:20.046Z,102551.44
2023-02-09T04:12:49.833Z,102551.64
2023-02-09T04:15:19.547Z,102552.15
2023-02-09T04:17:55.947Z,102545.27
2023-02-09T04:20:26.050Z,102539.92
2023-02-09T04:22:56.019Z,102535.52
2023-02-09T04:25:25.926Z,102528.04
2023-02-09T04:27:57.623Z,102528.69
2023-02-09T04:30:34.075Z,102518.84
2023-02-09T04:33:11.493Z,102513.95
2023-02-09T04:35:49.009Z,102512.50
2023-02-09T04:38:21.515Z,102511.38
2023-02-09T04:41:09.975Z,102511.66
2023-02-09T04:43:47.498Z,102512.52
2023-02-09T04:46:21.804Z,102513.36
2023-02-09T04:48:55.398Z,102506.08
2023-02-09T04:51:35.599Z,102499.31
2023-02-09T04:54:11.375Z,102499.23
2023-02-09T04:56:42.891Z,102495.33
2023-02-09T04:59:36.233Z,102490.46
2023-02-09T05:02:18.213Z,102492.00
2023-02-09T05:04:52.192Z,102493.13
2023-02-09T05:07:32.636Z,102485.74
2023-02-09T05:10:05.140Z,102481.73
2023-02-09T05:12:50.031Z,102476.02
2023-02-09T05:15:22.500Z,102474.69
2023-02-09T05:17:56.563Z,102475.71
2023-02-09T05:20:28.762Z,102475.81
2023-02-09T05:23:08.059Z,102479.12
2023-02-09T05:25:49.664Z,102481.29
2023-02-09T05:28:46.320Z,102476.85
2023-02-09T05:31:20.822Z,102482.35
2023-02-09T05:34:11.150Z,102484.96
2023-02-09T05:36:43.659Z,102484.38
2023-02-09T05:39:19.567Z,102482.17
2023-02-09T05:42:09.115Z,102477.57
2023-02-09T05:44:39.416Z,102473.27
2023-02-09T05:47:15.225Z,102470.02
2023-02-09T05:49:53.277Z,102471.59
2023-02-09T05:52:33.958Z,102473.81
2023-02-09T05:55:27.285Z,102472.64
2023-02-09T05:58:01.728Z,102468.71
2023-02-09T06:00:35.534Z,102467.70
2023-02-09T06:03:14.543Z,102462.33
2023-02-09T06:05:48.542Z,102456.37
2023-02-09T06:08:23.202Z,102458.80
2023-02-09T06:10:57.791Z,102464.11
2023-02-09T06:13:34.200Z,102462.18
2023-02-09T06:16:04.459Z,102462.41
2023-02-09T06:18:36.629Z,102459.62
2023-02-09T06:21:06.778Z,102462.70
2023-02-09T06:23:39.781Z,102466.80
2023-02-09T06:26:24.886Z,102470.84
2023-02-09T06:29:20.265Z,102472.73
2023-02-09T06:31:57.881Z,102470.67
2023-02-09T06:34:28.631Z,102472.93
2023-02-09T06:37:02.975Z,102473.39
2023-02-09T06:39:36.361Z,102473.55
2023-02-09T06:42:14.139Z,102467.70
2023-02-09T06:44:45.918Z,102469.81
2023-02-09T06:47:23.061Z,102469.71
2023-02-09T06:49:59.435Z,102476.43
2023-02-09T06:52:37.702Z,102478.60
2023-02-09T06:55:11.419Z,102475.92
2023-02-09T06:57:42.112Z,102471.40
2023-02-09T07:00:14.063Z,102468.17
2023-02-09T07:02:47.272Z,102466.07
2023-02-09T07:05:18.406Z,102465.56
2023-02-09T07:07:51.601Z,102466.65
2023-02-09T07:10:43.224Z,102467.21
2023-02-09T07:13:16.755Z,102464.13
2023-02-09T07:16:00.636Z,102462.27
2023-02-09T07:18:36.647Z,102459.61
2023-02-09T07:21:20.427Z,102457.49
2023-02-09T07:23:55.019Z,102458.52
2023-02-09T07:26:26.989Z,102462.47
2023-02-09T07:28:57.132Z,102458.27
2023-02-09T07:31:27.521Z,102457.55
2023-02-09T07:34:00.526Z,102454.91
2023-02-09T07:36:31.950Z,102448.55
2023-02-09T07:39:06.215Z,102444.30
2023-02-09T07:41:37.504Z,102450.27
2023-02-09T07:44:10.739Z,102444.48
2023-02-09T07:46:40.420Z,102444.15
2023-02-09T07:49:11.076Z,102442.10
2023-02-09T07:51:44.681Z,102436.55
2023-02-09T07:54:15.165Z,102436.52
2023-02-09T07:56:45.516Z,102435.42
2023-02-09T07:59:28.038Z,102435.09
2023-02-09T08:02:43.503Z,102433.27
2023-02-09T08:06:02.883Z,102432.14
2023-02-09T08:08:46.119Z,102435.33
2023-02-09T08:11:49.150Z,102436.98
2023-02-09T08:14:38.698Z,102437.14
2023-02-09T08:17:22.914Z,102437.20
2023-02-09T08:20:14.887Z,102433.80
2023-02-09T08:23:02.690Z,102438.36
2023-02-09T08:25:37.599Z,102437.89
2023-02-09T08:28:08.664Z,102433.31
2023-02-09T08:30:49.789Z,102435.48
2023-02-09T08:33:20.201Z,102432.63
2023-02-09T08:35:53.528Z,102426.64
2023-02-09T08:38:27.596Z,102423.30
2023-02-09T08:41:07.363Z,102420.08
2023-02-09T08:43:41.245Z,102415.94
2023-02-09T08:46:17.860Z,102409.25
2023-02-09T08:48:49.344Z,102412.45
2023-02-09T08:51:19.997Z,102416.77
2023-02-09T08:54:26.672Z,102413.99
2023-02-09T08:57:02.118Z,102415.34
2023-02-09T09:00:10.849Z,102407.91
2023-02-09T09:02:50.858Z,102404.73
2023-02-09T09:05:25.152Z,102402.58
2023-02-09T09:08:01.516Z,102396.41
2023-02-09T09:10:41.796Z,102397.45
2023-02-09T09:13:13.843Z,102388.55
2023-02-09T09:15:49.475Z,102389.45
2023-02-09T09:18:25.873Z,102385.86
2023-02-09T09:21:01.304Z,102388.67
2023-02-09T09:23:31.519Z,102386.91
2023-02-09T09:26:03.454Z,102382.15
2023-02-09T09:28:39.079Z,102380.38
2023-02-09T09:31:22.556Z,102380.20
2023-02-09T09:33:56.061Z,102380.48
2023-02-09T09:36:31.854Z,102380.73
2023-02-09T09:39:02.261Z,102383.48
2023-02-09T09:41:38.266Z,102378.42
2023-02-09T09:44:42.231Z,102377.92
2023-02-09T09:47:22.732Z,102372.48
2023-02-09T09:49:52.597Z,102372.23
2023-02-09T09:52:39.039Z,102367.08
2023-02-09T09:55:31.489Z,102363.39
2023-02-09T09:58:08.822Z,102359.17
2023-02-09T10:00:46.213Z,102357.36
2023-02-09T10:03:26.733Z,102357.21
2023-02-09T10:06:19.628Z,102361.57
2023-02-09T10:09:01.184Z,102358.08
2023-02-09T10:12:09.373Z,102352.83
2023-02-09T10:14:40.023Z,102344.77
2023-02-09T10:17:17.422Z,102337.95
2023-02-09T10:20:08.765Z,102330.58
2023-02-09T10:22:38.763Z,102326.39
2023-02-09T10:26:05.308Z,102328.74
2023-02-09T10:28:54.080Z,102323.91
2023-02-09T10:31:59.871Z,102322.37
2023-02-09T10:34:49.191Z,102321.69
2023-02-09T10:37:34.543Z,102313.38
2023-02-09T10:40:27.617Z,102319.05
2023-02-09T10:43:14.788Z,102317.66
2023-02-09T10:45:48.717Z,102310.20
2023-02-09T10:48:23.401Z,102306.11
2023-02-09T10:51:08.187Z,102306.95
2023-02-09T10:54:00.111Z,102305.63
2023-02-09T10:56:51.979Z,102299.10
2023-02-09T10:59:25.792Z,102295.84
2023-02-09T11:02:02.806Z,102295.88
2023-02-09T11:04:41.576Z,102291.80
2023-02-09T11:07:23.020Z,102289.91
2023-02-09T11:09:53.517Z,102291.08
2023-02-09T11:12:30.394Z,102291.38
2023-02-09T11:15:00.300Z,102287.39
2023-02-09T11:17:40.277Z,102289.21
2023-02-09T11:20:19.296Z,102285.36
2023-02-09T11:23:32.668Z,102283.80
2023-02-09T11:26:10.161Z,102278.59
2023-02-09T11:28:57.226Z,102274.38
2023-02-09T11:32:12.773Z,102263.77
2023-02-09T11:35:20.538Z,102261.27
2023-02-09T11:37:59.859Z,102262.45
2023-02-09T11:40:39.272Z,102251.10
2023-02-09T11:43:11.549Z,102250.99
2023-02-09T11:46:04.481Z,102254.39
2023-02-09T11:48:45.354Z,102252.54
2023-02-09T11:51:22.761Z,102251.73
2023-02-09T11:54:22.075Z,102245.61
2023-02-09T11:57:05.208Z,102242.10
2023-02-09T11:59:56.815Z,102237.48
2023-02-09T12:03:17.027Z,102234.84
2023-02-09T12:05:58.027Z,102227.41
2023-02-09T12:08:53.655Z,102226.39
2023-02-09T12:11:43.618Z,102227.48
2023-02-09T12:14:59.376Z,102223.58
2023-02-09T12:17:35.237Z,102215.41
2023-02-09T12:20:32.686Z,102213.56
2023-02-09T12:23:34.431Z,102209.05
2023-02-09T12:27:08.283Z,102204.58
2023-02-09T12:29:52.865Z,102203.85
2023-02-09T12:32:46.262Z,102198.52
2023-02-09T12:35:38.464Z,102198.98
2023-02-09T12:38:22.632Z,102201.60
2023-02-09T12:41:13.350Z,102200.45
2023-02-09T12:43:45.792Z,102198.58
2023-02-09T12:46:34.397Z,102201.00
2023-02-09T12:49:20.205Z,102199.84
2023-02-09T12:51:55.263Z,102202.02
2023-02-09T12:54:46.560Z,102200.09
2023-02-09T12:57:51.893Z,102195.23
2023-02-09T13:00:53.051Z,102192.92
2023-02-09T13:03:31.894Z,102191.63
2023-02-09T13:06:30.628Z,102188.30
2023-02-09T13:09:21.470Z,102187.66
2023-02-09T13:12:22.076Z,102183.05
2023-02-09T13:15:28.514Z,102179.94
2023-02-09T13:18:47.390Z,102174.39
2023-02-09T13:22:22.612Z,102170.16
2023-02-09T13:25:36.957Z,102166.91
2023-02-09T13:28:24.186Z,102166.61
2023-02-09T13:30:57.170Z,102165.21
2023-02-09T13:33:54.946Z,102156.44
2023-02-09T13:36:43.314Z,102154.93
2023-02-09T13:39:35.818Z,102152.27
2023-02-09T13:42:26.331Z,102150.63
2023-02-09T13:45:03.209Z,102148.97
2023-02-09T13:47:42.901Z,102149.42
2023-02-09T13:50:28.735Z,102147.06
2023-02-09T13:53:24.645Z,102144.69
2023-02-09T13:56:09.545Z,102142.33
2023-02-09T13:58:44.429Z,102140.69
2023-02-09T14:01:24.346Z,102144.19
2023-02-09T14:04:14.218Z,102141.29
2023-02-09T14:07:03.459Z,102141.33
2023-02-09T14:10:01.424Z,102138.04
2023-02-09T14:13:07.722Z,102133.84
2023-02-09T14:16:04.676Z,102130.67
2023-02-09T14:18:57.131Z,102124.71
2023-02-09T14:21:32.830Z,102127.40
2023-02-09T14:24:24.609Z,102120.85
2023-02-09T14:27:04.984Z,102120.83
2023-02-09T14:29:50.739Z,102121.46
2023-02-09T14:32:37.044Z,102117.09
2023-02-09T14:35:24.027Z,102115.36
2023-02-09T14:38:04.957Z,102110.31
2023-02-09T14:40:42.259Z,102106.66
2023-02-09T14:43:29.318Z,102106.98
2023-02-09T14:46:02.828Z,102101.57
2023-02-09T14:48:33.333Z,102098.61
2023-02-09T14:51:19.503Z,102095.63
2023-02-09T14:53:54.152Z,102096.77
2023-02-09T14:56:40.418Z,102088.98
2023-02-09T14:59:17.916Z,102088.83
2023-02-09T15:01:54.918Z,102087.69
2023-02-09T15:04:25.083Z,102086.41
2023-02-09T15:07:04.382Z,102078.08
2023-02-09T15:09:41.589Z,102078.33
2023-02-09T15:12:23.205Z,102078.90
2023-02-09T15:14:59.103Z,102078.30
2023-02-09T15:17:43.333Z,102079.08
2023-02-09T15:20:26.924Z,102071.84
2023-02-09T15:22:58.231Z,102072.84
2023-02-09T15:25:34.062Z,102072.98
2023-02-09T15:28:09.084Z,102072.96
2023-02-09T15:30:44.907Z,102070.31
2023-02-09T15:33:18.943Z,102066.80
2023-02-09T15:35:54.841Z,102064.35
2023-02-09T15:38:27.955Z,102068.95
2023-02-09T15:41:21.936Z,102070.10
2023-02-09T15:44:15.628Z,102070.83
2023-02-09T15:47:12.156Z,102069.31
2023-02-09T15:49:51.129Z,102066.05
2023-02-09T15:52:37.206Z,102063.19
2023-02-09T15:55:18.895Z,102056.58
2023-02-09T15:58:06.000Z,102054.88
2023-02-09T16:00:48.273Z,102059.02
2023-02-09T16:03:23.567Z,102059.23
2023-02-09T16:06:24.901Z,102049.48
2023-02-09T16:09:02.772Z,102040.55
2023-02-09T16:11:40.730Z,102038.88
2023-02-09T16:14:24.474Z,102048.16
2023-02-09T16:16:58.960Z,102051.23
2023-02-09T16:19:35.285Z,102046.15
2023-02-09T16:22:10.415Z,102044.83
2023-02-09T16:27:34.803Z,102051.34
2023-02-09T16:30:40.607Z,102057.04
2023-02-09T16:33:39.598Z,102058.63
2023-02-09T16:36:24.447Z,102052.66
2023-02-09T16:39:00.043Z,102047.62
2023-02-09T16:41:51.212Z,102041.61
2023-02-09T16:44:25.716Z,102046.55
2023-02-09T16:46:59.090Z,102051.34
2023-02-09T16:49:46.245Z,102052.27
2023-02-09T16:52:26.094Z,102047.80
2023-02-09T16:54:59.878Z,102042.85
2023-02-09T16:57:29.581Z,102037.09
2023-02-09T16:59:58.790Z,102036.89
2023-02-09T17:02:40.785Z,102037.64
2023-02-09T17:05:22.073Z,102033.01
2023-02-09T17:08:26.782Z,102033.38
2023-02-09T17:10:59.565Z,102035.60
2023-02-09T17:13:32.672Z,102033.24
2023-02-09T17:16:16.303Z,102031.05
2023-02-09T17:18:49.495Z,102023.08
2023-02-09T17:21:29.078Z,102018.38
2023-02-09T17:23:59.193Z,102014.14
2023-02-09T17:26:28.765Z,102019.17
2023-02-09T17:28:58.242Z,102013.42
2023-02-09T17:31:43.756Z,102012.29
2023-02-09T17:34:29.884Z,102007.98
2023-02-09T17:37:17.381Z,102011.62
2023-02-09T17:40:10.593Z,102012.86
2023-02-09T17:42:46.631Z,102003.65
2023-02-09T17:45:37.482Z,102005.43
2023-02-09T17:48:11.392Z,102000.84
2023-02-09T17:50:57.997Z,101997.05
2023-02-09T17:53:39.881Z,101994.97
2023-02-09T17:56:16.713Z,101994.69
2023-02-09T17:58:51.998Z,101984.59
2023-02-09T18:01:50.616Z,101977.25
2023-02-09T18:04:31.840Z,101972.31
2023-02-09T18:07:02.417Z,101969.67
2023-02-09T18:09:32.681Z,101972.23
2023-02-09T18:12:12.176Z,101977.05
2023-02-09T18:14:44.589Z,101975.62
2023-02-09T18:17:15.548Z,101970.73
2023-02-09T18:19:48.612Z,101969.67
2023-02-09T18:22:20.090Z,101971.91
2023-02-09T18:24:59.892Z,101972.42
2023-02-09T18:27:29.960Z,101970.45
2023-02-09T18:30:01.991Z,101969.77
2023-02-09T18:32:33.880Z,101964.58
2023-02-09T18:35:07.884Z,101955.48
2023-02-09T18:37:37.674Z,101937.52
2023-02-09T18:40:10.691Z,101926.88
2023-02-09T18:42:46.794Z,101933.20
2023-02-09T18:45:19.880Z,101950.33
2023-02-09T18:47:53.315Z,101952.65
2023-02-09T18:50:29.664Z,101949.24
2023-02-09T18:53:03.932Z,101950.73
2023-02-09T18:55:42.189Z,101971.15
2023-02-09T18:58:12.582Z,101985.55
2023-02-09T19:01:01.165Z,101991.15
2023-02-09T19:03:41.863Z,101989.88
2023-02-09T19:06:13.950Z,101997.13
2023-02-09T19:08:50.923Z,101999.20
2023-02-09T19:11:28.409Z,102001.36
2023-02-09T19:14:19.283Z,101994.10
2023-02-09T19:16:51.994Z,101997.19
2023-02-09T19:19:29.948Z,102009.31
2023-02-09T19:22:04.412Z,102004.50
2023-02-09T19:24:34.175Z,101995.73
2023-02-09T19:27:08.276Z,101988.96
2023-02-09T19:29:42.402Z,101973.67
2023-02-09T19:32:36.541Z,101969.33
2023-02-09T19:35:10.070Z,101976.61
2023-02-09T19:37:42.202Z,101985.55
2023-02-09T19:40:28.452Z,101981.83
2023-02-09T19:43:02.376Z,101989.12
2023-02-09T19:45:37.969Z,101999.59
2023-02-09T19:48:43.765Z,102003.35
2023-02-09T19:51:13.473Z,102000.27
2023-02-09T19:53:43.344Z,102004.11
2023-02-09T19:56:24.145Z,102006.10
2023-02-09T19:58:54.859Z,101994.48
2023-02-09T20:01:31.910Z,101985.50
2023-02-09T20:04:05.298Z,101981.27
2023-02-09T20:06:38.008Z,101980.16
2023-02-09T20:09:18.490Z,101973.73
2023-02-09T20:14:34.774Z,101953.04
2023-02-09T20:17:09.589Z,101954.05
2023-02-09T20:19:42.536Z,101959.04
2023-02-09T20:22:14.606Z,101962.79
2023-02-09T20:24:46.894Z,101966.73
2023-02-09T20:27:16.666Z,101967.06
2023-02-09T20:29:48.936Z,101969.42
2023-02-09T20:32:21.741Z,101971.76
2023-02-09T20:34:52.477Z,101975.45
2023-02-09T20:37:35.527Z,101975.23
2023-02-09T20:40:06.427Z,101979.09
2023-02-09T20:42:54.493Z,101979.73
2023-02-09T20:45:42.892Z,101977.45
2023-02-09T20:48:21.332Z,101974.17
2023-02-09T20:50:52.584Z,101971.98
2023-02-09T20:53:22.939Z,101974.54
2023-02-09T20:56:02.284Z,101986.69
2023-02-09T20:58:38.190Z,101993.73
2023-02-09T21:01:08.383Z,101991.80
2023-02-09T21:03:41.772Z,101982.68
2023-02-09T21:06:20.785Z,101982.02
2023-02-09T21:08:54.284Z,101980.89
2023-02-09T21:11:23.980Z,101975.21
2023-02-09T21:13:53.571Z,101976.67
2023-02-09T21:16:25.919Z,101973.55
2023-02-09T21:19:02.934Z,101973.29
2023-02-09T21:21:33.031Z,101977.83
2023-02-09T21:24:05.410Z,101973.98
2023-02-09T21:26:41.693Z,101969.77
2023-02-09T21:29:24.381Z,101970.06
2023-02-09T21:31:55.286Z,101970.24
2023-02-09T21:34:27.840Z,101970.47
2023-02-09T21:36:58.081Z,101969.99
2023-02-09T21:39:30.292Z,101970.75
2023-02-09T21:42:21.315Z,101971.21
2023-02-09T21:45:01.066Z,101972.45
2023-02-09T21:47:38.236Z,101970.44
2023-02-09T21:50:15.122Z,101971.30
2023-02-09T21:52:45.474Z,101960.15
2023-02-09T21:55:19.193Z,101958.48
2023-02-09T21:57:50.318Z,101960.09
2023-02-09T22:00:21.827Z,101959.17
2023-02-09T22:02:56.867Z,101959.23
2023-02-09T22:05:42.818Z,101958.67
2023-02-09T22:08:16.497Z,101961.72
2023-02-09T22:10:53.098Z,101968.59
2023-02-09T22:13:25.017Z,101973.10
2023-02-09T22:15:54.804Z,101976.23
2023-02-09T22:18:26.344Z,101979.85
2023-02-09T22:24:54.972Z,101979.44
2023-02-09T22:27:44.129Z,101981.31
2023-02-09T22:30:26.101Z,101985.52
2023-02-09T22:32:58.230Z,101981.58
2023-02-09T22:35:42.114Z,101981.02
2023-02-09T22:38:20.122Z,101982.15
2023-02-09T22:40:52.575Z,101981.38
2023-02-09T22:43:53.132Z,101976.16
2023-02-09T22:47:20.156Z,101981.42
2023-02-09T22:49:51.902Z,101980.38
2023-02-09T22:52:24.518Z,101975.41
2023-02-09T22:55:03.897Z,101977.49
2023-02-09T22:57:40.656Z,101977.17
2023-02-09T23:00:14.241Z,101977.39
2023-02-09T23:02:49.088Z,101971.73
2023-02-09T23:05:20.780Z,101975.04
2023-02-09T23:07:52.242Z,101974.99
2023-02-09T23:10:22.931Z,101975.55
2023-02-09T23:13:00.284Z,101974.14
2023-02-09T23:15:33.447Z,101973.66
2023-02-09T23:18:05.775Z,101971.37
2023-02-09T23:20:34.917Z,101966.20
2023-02-09T23:23:06.887Z,101967.19
2023-02-09T23:25:41.057Z,101967.30
2023-02-09T23:28:11.233Z,101966.55
2023-02-09T23:30:41.019Z,101965.09
2023-02-09T23:33:18.295Z,101968.63
2023-02-09T23:35:48.464Z,101970.58
2023-02-09T23:38:20.221Z,101975.34
2023-02-09T23:40:53.157Z,101979.27
2023-02-09T23:43:23.535Z,101979.46
2023-02-09T23:45:53.691Z,101979.11
2023-02-09T23:48:31.936Z,101976.41
2023-02-09T23:51:10.532Z,101980.77
2023-02-09T23:53:42.787Z,101980.45
2023-02-09T23:56:18.572Z,101984.06
2023-02-09T23:58:51.609Z,101980.17
